sensor_id;sensor_type;location;lat;lon;timestamp;temperature;humidity
60242;SHT30;46103;52.076;113.488;2023-04-15T00:00:32;-1.80;58.55
60242;SHT30;46103;52.076;113.488;2023-04-15T00:03:35;-1.66;57.77
60242;SHT30;46103;52.076;113.488;2023-04-15T00:06:40;-1.48;56.80
60242;SHT30;46103;52.076;113.488;2023-04-15T00:09:44;-1.30;56.26
60242;SHT30;46103;52.076;113.488;2023-04-15T00:12:48;-1.15;55.48
60242;SHT30;46103;52.076;113.488;2023-04-15T00:15:51;-1.00;55.04
60242;SHT30;46103;52.076;113.488;2023-04-15T00:18:55;-0.80;54.44
60242;SHT30;46103;52.076;113.488;2023-04-15T00:21:59;-0.62;54.20
60242;SHT30;46103;52.076;113.488;2023-04-15T00:25:03;-0.48;53.63
60242;SHT30;46103;52.076;113.488;2023-04-15T00:28:07;-0.52;52.57
60242;SHT30;46103;52.076;113.488;2023-04-15T00:31:11;-0.53;53.37
60242;SHT30;46103;52.076;113.488;2023-04-15T00:34:14;-0.56;50.58
60242;SHT30;46103;52.076;113.488;2023-04-15T00:37:18;-0.43;50.11
60242;SHT30;46103;52.076;113.488;2023-04-15T00:40:22;-0.29;50.65
60242;SHT30;46103;52.076;113.488;2023-04-15T00:43:27;-0.14;50.14
60242;SHT30;46103;52.076;113.488;2023-04-15T00:46:35;0.02;49.86
60242;SHT30;46103;52.076;113.488;2023-04-15T00:49:39;0.17;49.40
60242;SHT30;46103;52.076;113.488;2023-04-15T00:52:43;0.36;48.90
60242;SHT30;46103;52.076;113.488;2023-04-15T00:55:47;0.53;48.07
60242;SHT30;46103;52.076;113.488;2023-04-15T00:58:51;0.64;46.22
60242;SHT30;46103;52.076;113.488;2023-04-15T01:01:54;0.84;46.09
60242;SHT30;46103;52.076;113.488;2023-04-15T01:04:59;0.85;45.83
60242;SHT30;46103;52.076;113.488;2023-04-15T01:08:04;1.06;44.64
60242;SHT30;46103;52.076;113.488;2023-04-15T01:11:09;1.19;43.74
60242;SHT30;46103;52.076;113.488;2023-04-15T01:14:15;1.41;43.55
60242;SHT30;46103;52.076;113.488;2023-04-15T01:17:19;1.60;43.62
60242;SHT30;46103;52.076;113.488;2023-04-15T01:20:23;1.81;43.47
60242;SHT30;46103;52.076;113.488;2023-04-15T01:23:27;1.95;42.67
60242;SHT30;46103;52.076;113.488;2023-04-15T01:26:31;1.95;42.66
60242;SHT30;46103;52.076;113.488;2023-04-15T01:29:37;1.94;42.16
60242;SHT30;46103;52.076;113.488;2023-04-15T01:32:41;2.09;42.55
60242;SHT30;46103;52.076;113.488;2023-04-15T01:35:45;1.95;42.68
60242;SHT30;46103;52.076;113.488;2023-04-15T01:38:50;2.08;42.72
60242;SHT30;46103;52.076;113.488;2023-04-15T01:41:56;2.13;43.17
60242;SHT30;46103;52.076;113.488;2023-04-15T01:45:02;2.22;42.84
60242;SHT30;46103;52.076;113.488;2023-04-15T01:48:05;2.26;43.02
60242;SHT30;46103;52.076;113.488;2023-04-15T01:51:11;2.51;42.74
60242;SHT30;46103;52.076;113.488;2023-04-15T01:54:15;2.47;42.32
60242;SHT30;46103;52.076;113.488;2023-04-15T01:57:19;2.47;42.76
60242;SHT30;46103;52.076;113.488;2023-04-15T02:00:25;2.55;42.45
60242;SHT30;46103;52.076;113.488;2023-04-15T02:03:30;2.74;42.16
60242;SHT30;46103;52.076;113.488;2023-04-15T02:06:34;2.78;42.17
60242;SHT30;46103;52.076;113.488;2023-04-15T02:09:39;2.98;41.69
60242;SHT30;46103;52.076;113.488;2023-04-15T02:12:42;3.22;41.45
60242;SHT30;46103;52.076;113.488;2023-04-15T02:15:48;3.27;40.51
60242;SHT30;46103;52.076;113.488;2023-04-15T02:18:53;3.40;40.48
60242;SHT30;46103;52.076;113.488;2023-04-15T02:21:57;3.60;40.12
60242;SHT30;46103;52.076;113.488;2023-04-15T02:25:02;3.82;39.12
60242;SHT30;46103;52.076;113.488;2023-04-15T02:28:06;4.08;38.81
60242;SHT30;46103;52.076;113.488;2023-04-15T02:31:10;4.39;38.52
60242;SHT30;46103;52.076;113.488;2023-04-15T02:34:14;4.63;37.80
60242;SHT30;46103;52.076;113.488;2023-04-15T02:37:19;4.82;37.34
60242;SHT30;46103;52.076;113.488;2023-04-15T02:40:22;4.99;37.13
60242;SHT30;46103;52.076;113.488;2023-04-15T02:43:26;5.04;36.39
60242;SHT30;46103;52.076;113.488;2023-04-15T02:46:30;5.09;37.10
60242;SHT30;46103;52.076;113.488;2023-04-15T02:49:34;5.42;36.86
60242;SHT30;46103;52.076;113.488;2023-04-15T02:52:41;5.68;36.03
60242;SHT30;46103;52.076;113.488;2023-04-15T02:55:45;5.87;35.71
60242;SHT30;46103;52.076;113.488;2023-04-15T02:58:48;5.95;35.94
60242;SHT30;46103;52.076;113.488;2023-04-15T03:01:58;6.06;35.55
60242;SHT30;46103;52.076;113.488;2023-04-15T03:05:03;6.04;35.93
60242;SHT30;46103;52.076;113.488;2023-04-15T03:08:08;6.28;35.24
60242;SHT30;46103;52.076;113.488;2023-04-15T03:11:14;6.49;34.79
60242;SHT30;46103;52.076;113.488;2023-04-15T03:14:19;6.64;34.76
60242;SHT30;46103;52.076;113.488;2023-04-15T03:17:23;6.80;33.90
60242;SHT30;46103;52.076;113.488;2023-04-15T03:20:27;6.91;32.90
60242;SHT30;46103;52.076;113.488;2023-04-15T03:23:30;6.98;33.10
60242;SHT30;46103;52.076;113.488;2023-04-15T03:26:36;7.28;32.46
60242;SHT30;46103;52.076;113.488;2023-04-15T03:29:46;7.40;33.11
60242;SHT30;46103;52.076;113.488;2023-04-15T03:32:51;7.57;30.30
60242;SHT30;46103;52.076;113.488;2023-04-15T03:35:56;7.73;30.86
60242;SHT30;46103;52.076;113.488;2023-04-15T03:38:59;7.80;30.32
60242;SHT30;46103;52.076;113.488;2023-04-15T03:42:05;7.74;31.08
60242;SHT30;46103;52.076;113.488;2023-04-15T03:45:09;7.70;31.68
60242;SHT30;46103;52.076;113.488;2023-04-15T03:48:13;7.70;30.11
60242;SHT30;46103;52.076;113.488;2023-04-15T03:51:20;7.66;30.17
60242;SHT30;46103;52.076;113.488;2023-04-15T03:54:23;7.75;30.88
60242;SHT30;46103;52.076;113.488;2023-04-15T03:57:27;7.88;29.44
60242;SHT30;46103;52.076;113.488;2023-04-15T04:00:30;8.02;26.40
60242;SHT30;46103;52.076;113.488;2023-04-15T04:03:34;7.90;26.95
60242;SHT30;46103;52.076;113.488;2023-04-15T04:06:39;7.84;26.60
60242;SHT30;46103;52.076;113.488;2023-04-15T04:09:43;8.02;25.69
60242;SHT30;46103;52.076;113.488;2023-04-15T04:12:48;8.05;25.77
60242;SHT30;46103;52.076;113.488;2023-04-15T04:15:52;7.94;25.22
60242;SHT30;46103;52.076;113.488;2023-04-15T04:18:56;7.88;24.83
60242;SHT30;46103;52.076;113.488;2023-04-15T04:22:00;7.91;24.47
60242;SHT30;46103;52.076;113.488;2023-04-15T04:25:05;8.02;24.84
60242;SHT30;46103;52.076;113.488;2023-04-15T04:28:10;7.95;23.18
60242;SHT30;46103;52.076;113.488;2023-04-15T04:31:15;7.95;22.43
60242;SHT30;46103;52.076;113.488;2023-04-15T04:34:18;7.91;20.97
60242;SHT30;46103;52.076;113.488;2023-04-15T04:37:24;7.90;21.71
60242;SHT30;46103;52.076;113.488;2023-04-15T04:40:27;7.97;23.83
60242;SHT30;46103;52.076;113.488;2023-04-15T04:43:31;8.06;24.68
60242;SHT30;46103;52.076;113.488;2023-04-15T04:46:35;8.13;24.51
60242;SHT30;46103;52.076;113.488;2023-04-15T04:49:39;8.21;24.78
60242;SHT30;46103;52.076;113.488;2023-04-15T04:52:43;8.40;25.12
60242;SHT30;46103;52.076;113.488;2023-04-15T04:55:47;8.50;24.59
60242;SHT30;46103;52.076;113.488;2023-04-15T04:58:51;8.70;24.30
60242;SHT30;46103;52.076;113.488;2023-04-15T05:01:55;8.89;24.49
60242;SHT30;46103;52.076;113.488;2023-04-15T05:04:59;9.08;24.79
60242;SHT30;46103;52.076;113.488;2023-04-15T05:08:04;9.29;24.58
60242;SHT30;46103;52.076;113.488;2023-04-15T05:11:07;9.53;24.47
60242;SHT30;46103;52.076;113.488;2023-04-15T05:14:10;9.76;24.50
60242;SHT30;46103;52.076;113.488;2023-04-15T05:17:14;9.83;23.19
60242;SHT30;46103;52.076;113.488;2023-04-15T05:20:18;9.72;23.71
60242;SHT30;46103;52.076;113.488;2023-04-15T05:23:22;9.93;23.67
60242;SHT30;46103;52.076;113.488;2023-04-15T05:26:25;10.07;23.70
60242;SHT30;46103;52.076;113.488;2023-04-15T05:29:29;10.19;23.76
60242;SHT30;46103;52.076;113.488;2023-04-15T05:32:33;10.32;23.29
60242;SHT30;46103;52.076;113.488;2023-04-15T05:35:37;10.42;23.46
60242;SHT30;46103;52.076;113.488;2023-04-15T05:38:40;10.56;22.97
60242;SHT30;46103;52.076;113.488;2023-04-15T05:41:45;10.62;22.57
60242;SHT30;46103;52.076;113.488;2023-04-15T05:44:49;10.66;22.65
60242;SHT30;46103;52.076;113.488;2023-04-15T05:47:54;10.83;22.46
60242;SHT30;46103;52.076;113.488;2023-04-15T05:50:58;10.93;22.14
60242;SHT30;46103;52.076;113.488;2023-04-15T05:54:02;10.80;21.73
60242;SHT30;46103;52.076;113.488;2023-04-15T05:57:05;10.53;17.65
60242;SHT30;46103;52.076;113.488;2023-04-15T06:00:10;10.77;18.32
60242;SHT30;46103;52.076;113.488;2023-04-15T06:03:15;11.17;19.30
60242;SHT30;46103;52.076;113.488;2023-04-15T06:06:19;11.51;19.74
60242;SHT30;46103;52.076;113.488;2023-04-15T06:09:23;11.82;20.44
60242;SHT30;46103;52.076;113.488;2023-04-15T06:12:28;12.00;19.68
60242;SHT30;46103;52.076;113.488;2023-04-15T06:15:31;12.07;17.64
60242;SHT30;46103;52.076;113.488;2023-04-15T06:18:34;11.85;15.81
60242;SHT30;46103;52.076;113.488;2023-04-15T06:21:39;11.97;15.98
60242;SHT30;46103;52.076;113.488;2023-04-15T06:24:43;11.91;15.84
60242;SHT30;46103;52.076;113.488;2023-04-15T06:27:48;12.14;15.42
60242;SHT30;46103;52.076;113.488;2023-04-15T06:30:52;12.44;15.30
60242;SHT30;46103;52.076;113.488;2023-04-15T06:33:56;12.58;14.90
60242;SHT30;46103;52.076;113.488;2023-04-15T06:36:59;12.92;14.99
60242;SHT30;46103;52.076;113.488;2023-04-15T06:40:07;12.97;14.66
60242;SHT30;46103;52.076;113.488;2023-04-15T06:43:12;13.33;14.97
60242;SHT30;46103;52.076;113.488;2023-04-15T06:46:16;13.55;15.53
60242;SHT30;46103;52.076;113.488;2023-04-15T06:49:20;14.17;14.52
60242;SHT30;46103;52.076;113.488;2023-04-15T06:52:24;14.68;14.19
60242;SHT30;46103;52.076;113.488;2023-04-15T06:55:28;15.18;14.32
60242;SHT30;46103;52.076;113.488;2023-04-15T06:58:36;15.54;14.14
60242;SHT30;46103;52.076;113.488;2023-04-15T07:01:40;15.90;13.76
60242;SHT30;46103;52.076;113.488;2023-04-15T07:04:44;15.92;13.94
60242;SHT30;46103;52.076;113.488;2023-04-15T07:07:48;16.42;13.61
60242;SHT30;46103;52.076;113.488;2023-04-15T07:10:53;16.83;13.36
60242;SHT30;46103;52.076;113.488;2023-04-15T07:13:57;17.35;13.04
60242;SHT30;46103;52.076;113.488;2023-04-15T07:17:00;18.25;12.80
60242;SHT30;46103;52.076;113.488;2023-04-15T07:20:04;19.08;12.16
60242;SHT30;46103;52.076;113.488;2023-04-15T07:23:09;19.42;12.11
60242;SHT30;46103;52.076;113.488;2023-04-15T07:26:12;20.20;11.67
60242;SHT30;46103;52.076;113.488;2023-04-15T07:29:16;20.69;11.55
60242;SHT30;46103;52.076;113.488;2023-04-15T07:32:19;21.02;11.41
60242;SHT30;46103;52.076;113.488;2023-04-15T07:35:23;21.65;11.00
60242;SHT30;46103;52.076;113.488;2023-04-15T07:38:28;21.90;10.70
60242;SHT30;46103;52.076;113.488;2023-04-15T07:41:32;22.05;10.73
60242;SHT30;46103;52.076;113.488;2023-04-15T07:44:35;22.72;10.14
60242;SHT30;46103;52.076;113.488;2023-04-15T07:47:39;22.72;9.82
60242;SHT30;46103;52.076;113.488;2023-04-15T07:50:44;22.98;9.96
60242;SHT30;46103;52.076;113.488;2023-04-15T07:53:49;23.34;9.91
60242;SHT30;46103;52.076;113.488;2023-04-15T07:56:53;23.71;9.60
60242;SHT30;46103;52.076;113.488;2023-04-15T07:59:56;24.09;9.39
60242;SHT30;46103;52.076;113.488;2023-04-15T08:02:59;24.63;9.53
60242;SHT30;46103;52.076;113.488;2023-04-15T08:06:04;25.10;10.03
60242;SHT30;46103;52.076;113.488;2023-04-15T08:09:08;25.31;9.21
60242;SHT30;46103;52.076;113.488;2023-04-15T08:12:11;25.01;9.39
60242;SHT30;46103;52.076;113.488;2023-04-15T08:15:15;24.95;9.17
60242;SHT30;46103;52.076;113.488;2023-04-15T08:18:20;24.80;9.24
60242;SHT30;46103;52.076;113.488;2023-04-15T08:21:24;25.11;9.28
60242;SHT30;46103;52.076;113.488;2023-04-15T08:24:30;25.69;9.22
60242;SHT30;46103;52.076;113.488;2023-04-15T08:27:33;25.72;8.98
60242;SHT30;46103;52.076;113.488;2023-04-15T08:30:37;25.91;9.00
60242;SHT30;46103;52.076;113.488;2023-04-15T08:33:41;25.83;8.98
60242;SHT30;46103;52.076;113.488;2023-04-15T08:36:44;25.62;8.85
60242;SHT30;46103;52.076;113.488;2023-04-15T08:39:48;25.89;8.70
60242;SHT30;46103;52.076;113.488;2023-04-15T08:42:54;26.82;8.58
60242;SHT30;46103;52.076;113.488;2023-04-15T08:46:00;27.52;8.44
60242;SHT30;46103;52.076;113.488;2023-04-15T08:49:04;28.10;8.47
60242;SHT30;46103;52.076;113.488;2023-04-15T08:52:08;28.28;8.45
60242;SHT30;46103;52.076;113.488;2023-04-15T08:55:14;28.07;8.43
60242;SHT30;46103;52.076;113.488;2023-04-15T08:58:18;27.66;8.63
60242;SHT30;46103;52.076;113.488;2023-04-15T09:01:22;27.92;8.33
60242;SHT30;46103;52.076;113.488;2023-04-15T09:04:27;28.12;8.20
60242;SHT30;46103;52.076;113.488;2023-04-15T09:07:33;28.67;8.06
60242;SHT30;46103;52.076;113.488;2023-04-15T09:10:38;28.58;8.07
60242;SHT30;46103;52.076;113.488;2023-04-15T09:13:42;28.48;8.41
60242;SHT30;46103;52.076;113.488;2023-04-15T09:17:07;29.13;8.10
60242;SHT30;46103;52.076;113.488;2023-04-15T09:20:15;29.37;7.96
60242;SHT30;46103;52.076;113.488;2023-04-15T09:23:18;29.26;7.76
60242;SHT30;46103;52.076;113.488;2023-04-15T09:26:36;26.94;8.31
60242;SHT30;46103;52.076;113.488;2023-04-15T09:29:42;26.14;8.48
60242;SHT30;46103;52.076;113.488;2023-04-15T09:32:54;26.35;8.45
60242;SHT30;46103;52.076;113.488;2023-04-15T09:36:02;25.36;8.78
60242;SHT30;46103;52.076;113.488;2023-04-15T09:39:07;23.74;9.19
60242;SHT30;46103;52.076;113.488;2023-04-15T09:42:11;23.29;9.30
60242;SHT30;46103;52.076;113.488;2023-04-15T09:45:15;24.91;9.07
60242;SHT30;46103;52.076;113.488;2023-04-15T09:48:21;26.69;8.88
60242;SHT30;46103;52.076;113.488;2023-04-15T09:51:34;27.34;8.86
60242;SHT30;46103;52.076;113.488;2023-04-15T09:54:38;26.71;8.98
60242;SHT30;46103;52.076;113.488;2023-04-15T09:57:45;26.87;9.20
60242;SHT30;46103;52.076;113.488;2023-04-15T10:00:51;27.40;9.01
60242;SHT30;46103;52.076;113.488;2023-04-15T10:04:01;27.72;8.82
60242;SHT30;46103;52.076;113.488;2023-04-15T10:07:08;27.58;8.99
60242;SHT30;46103;52.076;113.488;2023-04-15T10:10:13;27.75;8.85
60242;SHT30;46103;52.076;113.488;2023-04-15T10:13:19;26.34;9.09
60242;SHT30;46103;52.076;113.488;2023-04-15T10:16:26;25.12;9.13
60242;SHT30;46103;52.076;113.488;2023-04-15T10:19:36;24.77;9.51
60242;SHT30;46103;52.076;113.488;2023-04-15T10:22:40;24.40;9.77
60242;SHT30;46103;52.076;113.488;2023-04-15T10:25:45;23.22;10.38
60242;SHT30;46103;52.076;113.488;2023-04-15T10:28:50;21.79;10.66
60242;SHT30;46103;52.076;113.488;2023-04-15T10:31:58;20.10;11.58
60242;SHT30;46103;52.076;113.488;2023-04-15T10:35:04;18.76;12.25
60242;SHT30;46103;52.076;113.488;2023-04-15T10:41:37;16.36;14.06
60242;SHT30;46103;52.076;113.488;2023-04-15T10:44:42;15.64;14.52
60242;SHT30;46103;52.076;113.488;2023-04-15T10:47:51;14.92;15.07
60242;SHT30;46103;52.076;113.488;2023-04-15T10:50:57;14.33;15.68
60242;SHT30;46103;52.076;113.488;2023-04-15T10:54:30;13.93;16.01
60242;SHT30;46103;52.076;113.488;2023-04-15T10:57:37;13.28;16.53
60242;SHT30;46103;52.076;113.488;2023-04-15T11:00:49;12.76;17.18
60242;SHT30;46103;52.076;113.488;2023-04-15T11:03:54;12.40;17.64
60242;SHT30;46103;52.076;113.488;2023-04-15T11:07:07;11.97;18.10
60242;SHT30;46103;52.076;113.488;2023-04-15T11:13:22;11.28;19.07
60242;SHT30;46103;52.076;113.488;2023-04-15T11:16:27;10.93;19.58
60242;SHT30;46103;52.076;113.488;2023-04-15T11:19:37;10.49;20.07
60242;SHT30;46103;52.076;113.488;2023-04-15T11:22:51;10.12;20.38
60242;SHT30;46103;52.076;113.488;2023-04-15T11:26:16;9.90;20.75
60242;SHT30;46103;52.076;113.488;2023-04-15T11:29:19;9.73;21.16
60242;SHT30;46103;52.076;113.488;2023-04-15T11:32:23;9.62;21.07
60242;SHT30;46103;52.076;113.488;2023-04-15T11:35:27;9.49;21.30
60242;SHT30;46103;52.076;113.488;2023-04-15T11:38:33;9.46;21.40
60242;SHT30;46103;52.076;113.488;2023-04-15T11:41:36;9.47;21.44
60242;SHT30;46103;52.076;113.488;2023-04-15T11:44:41;9.42;21.59
60242;SHT30;46103;52.076;113.488;2023-04-15T11:47:44;9.45;21.74
60242;SHT30;46103;52.076;113.488;2023-04-15T11:51:02;9.39;21.96
60242;SHT30;46103;52.076;113.488;2023-04-15T11:54:06;9.35;22.12
60242;SHT30;46103;52.076;113.488;2023-04-15T11:57:09;9.31;22.16
60242;SHT30;46103;52.076;113.488;2023-04-15T12:00:12;9.26;22.38
60242;SHT30;46103;52.076;113.488;2023-04-15T12:03:18;9.22;22.34
60242;SHT30;46103;52.076;113.488;2023-04-15T12:06:23;9.19;22.54
60242;SHT30;46103;52.076;113.488;2023-04-15T12:09:27;9.14;22.59
60242;SHT30;46103;52.076;113.488;2023-04-15T12:12:34;9.07;22.94
60242;SHT30;46103;52.076;113.488;2023-04-15T12:15:38;9.01;23.05
60242;SHT30;46103;52.076;113.488;2023-04-15T12:18:49;8.89;23.16
60242;SHT30;46103;52.076;113.488;2023-04-15T12:22:03;8.83;23.43
60242;SHT30;46103;52.076;113.488;2023-04-15T12:25:07;8.76;23.63
60242;SHT30;46103;52.076;113.488;2023-04-15T12:28:11;8.71;23.73
60242;SHT30;46103;52.076;113.488;2023-04-15T12:31:15;8.64;23.94
60242;SHT30;46103;52.076;113.488;2023-04-15T12:34:33;8.53;24.10
60242;SHT30;46103;52.076;113.488;2023-04-15T12:37:37;8.39;24.24
60242;SHT30;46103;52.076;113.488;2023-04-15T12:40:41;8.38;24.49
60242;SHT30;46103;52.076;113.488;2023-04-15T12:43:44;8.31;24.66
60242;SHT30;46103;52.076;113.488;2023-04-15T12:46:52;8.31;24.70
60242;SHT30;46103;52.076;113.488;2023-04-15T12:49:55;8.26;24.78
60242;SHT30;46103;52.076;113.488;2023-04-15T12:52:58;8.26;24.69
60242;SHT30;46103;52.076;113.488;2023-04-15T12:56:01;8.22;24.85
60242;SHT30;46103;52.076;113.488;2023-04-15T12:59:04;8.18;25.00
60242;SHT30;46103;52.076;113.488;2023-04-15T13:02:08;8.22;24.88
60242;SHT30;46103;52.076;113.488;2023-04-15T13:05:12;8.16;24.97
60242;SHT30;46103;52.076;113.488;2023-04-15T13:08:19;8.15;25.00
60242;SHT30;46103;52.076;113.488;2023-04-15T13:11:22;8.15;25.17
60242;SHT30;46103;52.076;113.488;2023-04-15T13:14:27;8.12;25.13
60242;SHT30;46103;52.076;113.488;2023-04-15T13:17:30;8.16;25.21
60242;SHT30;46103;52.076;113.488;2023-04-15T13:20:34;8.12;25.10
60242;SHT30;46103;52.076;113.488;2023-04-15T13:23:40;8.09;25.25
60242;SHT30;46103;52.076;113.488;2023-04-15T13:26:43;8.09;25.20
60242;SHT30;46103;52.076;113.488;2023-04-15T13:29:48;8.05;25.32
60242;SHT30;46103;52.076;113.488;2023-04-15T13:32:52;8.04;25.22
60242;SHT30;46103;52.076;113.488;2023-04-15T13:35:56;8.02;25.37
60242;SHT30;46103;52.076;113.488;2023-04-15T13:39:00;7.98;25.44
60242;SHT30;46103;52.076;113.488;2023-04-15T13:42:04;7.97;25.52
60242;SHT30;46103;52.076;113.488;2023-04-15T13:45:07;7.95;25.42
60242;SHT30;46103;52.076;113.488;2023-04-15T13:48:12;7.94;25.52
60242;SHT30;46103;52.076;113.488;2023-04-15T13:51:15;7.90;25.61
60242;SHT30;46103;52.076;113.488;2023-04-15T13:54:18;7.87;25.43
60242;SHT30;46103;52.076;113.488;2023-04-15T13:57:22;7.81;25.52
60242;SHT30;46103;52.076;113.488;2023-04-15T14:00:25;7.80;25.54
60242;SHT30;46103;52.076;113.488;2023-04-15T14:03:29;7.75;25.53
60242;SHT30;46103;52.076;113.488;2023-04-15T14:06:33;7.74;25.41
60242;SHT30;46103;52.076;113.488;2023-04-15T14:09:37;7.73;25.48
60242;SHT30;46103;52.076;113.488;2023-04-15T14:12:45;7.74;25.31
60242;SHT30;46103;52.076;113.488;2023-04-15T14:15:48;7.69;25.32
60242;SHT30;46103;52.076;113.488;2023-04-15T14:18:52;7.66;25.14
60242;SHT30;46103;52.076;113.488;2023-04-15T14:21:56;7.69;25.01
60242;SHT30;46103;52.076;113.488;2023-04-15T14:25:00;7.67;25.05
60242;SHT30;46103;52.076;113.488;2023-04-15T14:28:04;7.67;24.93
60242;SHT30;46103;52.076;113.488;2023-04-15T14:31:07;7.63;24.87
60242;SHT30;46103;52.076;113.488;2023-04-15T14:34:11;7.60;24.82
60242;SHT30;46103;52.076;113.488;2023-04-15T14:37:17;7.56;24.67
60242;SHT30;46103;52.076;113.488;2023-04-15T14:40:21;7.55;24.50
60242;SHT30;46103;52.076;113.488;2023-04-15T14:43:26;7.56;24.49
60242;SHT30;46103;52.076;113.488;2023-04-15T14:46:29;7.55;24.64
60242;SHT30;46103;52.076;113.488;2023-04-15T14:49:33;7.57;24.34
60242;SHT30;46103;52.076;113.488;2023-04-15T14:52:37;7.56;24.29
60242;SHT30;46103;52.076;113.488;2023-04-15T14:55:43;7.55;24.20
60242;SHT30;46103;52.076;113.488;2023-04-15T14:58:48;7.53;23.98
60242;SHT30;46103;52.076;113.488;2023-04-15T15:01:55;7.52;23.94
60242;SHT30;46103;52.076;113.488;2023-04-15T15:05:00;7.50;23.91
60242;SHT30;46103;52.076;113.488;2023-04-15T15:08:06;7.52;23.99
60242;SHT30;46103;52.076;113.488;2023-04-15T15:11:11;7.50;24.18
60242;SHT30;46103;52.076;113.488;2023-04-15T15:14:16;7.52;23.83
60242;SHT30;46103;52.076;113.488;2023-04-15T15:17:21;7.50;23.90
60242;SHT30;46103;52.076;113.488;2023-04-15T15:20:26;7.52;24.20
60242;SHT30;46103;52.076;113.488;2023-04-15T15:23:30;7.50;24.25
60242;SHT30;46103;52.076;113.488;2023-04-15T15:26:34;7.49;23.72
60242;SHT30;46103;52.076;113.488;2023-04-15T15:29:38;7.50;23.72
60242;SHT30;46103;52.076;113.488;2023-04-15T15:32:43;7.49;23.95
60242;SHT30;46103;52.076;113.488;2023-04-15T15:35:47;7.45;23.95
60242;SHT30;46103;52.076;113.488;2023-04-15T15:38:52;7.42;23.92
60242;SHT30;46103;52.076;113.488;2023-04-15T15:41:57;7.36;24.42
60242;SHT30;46103;52.076;113.488;2023-04-15T15:45:03;7.35;24.15
60242;SHT30;46103;52.076;113.488;2023-04-15T15:48:07;7.32;24.33
60242;SHT30;46103;52.076;113.488;2023-04-15T15:51:12;7.29;24.83
60242;SHT30;46103;52.076;113.488;2023-04-15T15:54:19;7.25;24.74
60242;SHT30;46103;52.076;113.488;2023-04-15T15:57:22;7.16;24.74
60242;SHT30;46103;52.076;113.488;2023-04-15T16:00:25;7.12;24.82
60242;SHT30;46103;52.076;113.488;2023-04-15T16:03:29;7.07;24.81
60242;SHT30;46103;52.076;113.488;2023-04-15T16:06:32;7.05;25.02
60242;SHT30;46103;52.076;113.488;2023-04-15T16:09:37;6.98;25.03
60242;SHT30;46103;52.076;113.488;2023-04-15T16:12:43;6.92;25.18
60242;SHT30;46103;52.076;113.488;2023-04-15T16:15:47;6.91;25.15
60242;SHT30;46103;52.076;113.488;2023-04-15T16:18:52;6.91;25.23
60242;SHT30;46103;52.076;113.488;2023-04-15T16:21:56;6.94;25.14
60242;SHT30;46103;52.076;113.488;2023-04-15T16:24:59;6.91;25.25
60242;SHT30;46103;52.076;113.488;2023-04-15T16:28:03;6.88;25.37
60242;SHT30;46103;52.076;113.488;2023-04-15T16:31:24;6.87;25.55
60242;SHT30;46103;52.076;113.488;2023-04-15T16:34:28;6.87;25.58
60242;SHT30;46103;52.076;113.488;2023-04-15T16:37:31;6.83;25.47
60242;SHT30;46103;52.076;113.488;2023-04-15T16:40:36;6.81;25.43
60242;SHT30;46103;52.076;113.488;2023-04-15T16:43:40;6.81;25.36
60242;SHT30;46103;52.076;113.488;2023-04-15T16:46:44;6.83;25.51
60242;SHT30;46103;52.076;113.488;2023-04-15T16:49:47;6.81;25.71
60242;SHT30;46103;52.076;113.488;2023-04-15T16:52:50;6.81;25.63
60242;SHT30;46103;52.076;113.488;2023-04-15T16:55:54;6.83;25.73
60242;SHT30;46103;52.076;113.488;2023-04-15T16:58:58;6.81;25.67
60242;SHT30;46103;52.076;113.488;2023-04-15T17:02:02;6.83;25.62
60242;SHT30;46103;52.076;113.488;2023-04-15T17:05:06;6.83;25.82
60242;SHT30;46103;52.076;113.488;2023-04-15T17:08:10;6.84;25.78
60242;SHT30;46103;52.076;113.488;2023-04-15T17:11:13;6.85;25.80
60242;SHT30;46103;52.076;113.488;2023-04-15T17:14:17;6.84;25.75
60242;SHT30;46103;52.076;113.488;2023-04-15T17:17:21;6.83;25.81
60242;SHT30;46103;52.076;113.488;2023-04-15T17:20:24;6.84;25.90
60242;SHT30;46103;52.076;113.488;2023-04-15T17:23:28;6.83;25.99
60242;SHT30;46103;52.076;113.488;2023-04-15T17:26:32;6.83;25.90
60242;SHT30;46103;52.076;113.488;2023-04-15T17:29:35;6.83;26.12
60242;SHT30;46103;52.076;113.488;2023-04-15T17:32:39;6.81;26.06
60242;SHT30;46103;52.076;113.488;2023-04-15T17:35:43;6.76;26.28
60242;SHT30;46103;52.076;113.488;2023-04-15T17:38:47;6.73;26.00
60242;SHT30;46103;52.076;113.488;2023-04-15T17:41:51;6.74;26.21
60242;SHT30;46103;52.076;113.488;2023-04-15T17:44:54;6.70;26.03
60242;SHT30;46103;52.076;113.488;2023-04-15T17:47:59;6.69;25.95
60242;SHT30;46103;52.076;113.488;2023-04-15T17:51:05;6.69;26.43
60242;SHT30;46103;52.076;113.488;2023-04-15T17:54:09;6.67;26.21
60242;SHT30;46103;52.076;113.488;2023-04-15T17:57:12;6.63;26.22
60242;SHT30;46103;52.076;113.488;2023-04-15T18:00:16;6.60;26.44
60242;SHT30;46103;52.076;113.488;2023-04-15T18:03:19;6.54;26.41
60242;SHT30;46103;52.076;113.488;2023-04-15T18:06:24;6.56;26.42
60242;SHT30;46103;52.076;113.488;2023-04-15T18:09:28;6.60;26.37
60242;SHT30;46103;52.076;113.488;2023-04-15T18:12:32;6.53;26.37
60242;SHT30;46103;52.076;113.488;2023-04-15T18:15:36;6.53;26.50
60242;SHT30;46103;52.076;113.488;2023-04-15T18:18:40;6.53;26.56
60242;SHT30;46103;52.076;113.488;2023-04-15T18:21:44;6.50;26.58
60242;SHT30;46103;52.076;113.488;2023-04-15T18:24:47;6.44;26.71
60242;SHT30;46103;52.076;113.488;2023-04-15T18:27:54;6.44;26.71
60242;SHT30;46103;52.076;113.488;2023-04-15T18:30:58;6.40;26.81
60242;SHT30;46103;52.076;113.488;2023-04-15T18:34:02;6.40;26.86
60242;SHT30;46103;52.076;113.488;2023-04-15T18:37:09;6.32;27.12
60242;SHT30;46103;52.076;113.488;2023-04-15T18:40:12;6.32;27.11
60242;SHT30;46103;52.076;113.488;2023-04-15T18:43:18;6.28;27.26
60242;SHT30;46103;52.076;113.488;2023-04-15T18:46:22;6.28;27.36
60242;SHT30;46103;52.076;113.488;2023-04-15T18:49:25;6.23;27.34
60242;SHT30;46103;52.076;113.488;2023-04-15T18:52:28;6.18;27.35
60242;SHT30;46103;52.076;113.488;2023-04-15T18:55:34;6.15;27.43
60242;SHT30;46103;52.076;113.488;2023-04-15T18:58:37;6.12;27.65
60242;SHT30;46103;52.076;113.488;2023-04-15T19:02:00;6.13;27.65
60242;SHT30;46103;52.076;113.488;2023-04-15T19:05:06;6.12;27.77
60242;SHT30;46103;52.076;113.488;2023-04-15T19:08:09;6.15;27.90
60242;SHT30;46103;52.076;113.488;2023-04-15T19:11:13;6.15;27.80